createdAt,value
2019-03-12T00:01:00.453Z,6.67
2019-03-12T00:03:29.449Z,10.43
2019-03-12T00:05:58.335Z,6.60
2019-03-12T00:08:27.553Z,11.07
2019-03-12T00:10:56.428Z,11.97
2019-03-12T00:13:25.316Z,8.13
2019-03-12T00:15:54.216Z,5.67
2019-03-12T00:18:23.036Z,6.20
2019-03-12T00:20:51.997Z,5.00
2019-03-12T00:23:20.982Z,6.87
2019-03-12T00:25:49.591Z,8.67
2019-03-12T00:28:18.874Z,6.30
2019-03-12T00:30:47.519Z,7.77
2019-03-12T00:33:16.478Z,6.63
2019-03-12T00:35:45.339Z,7.20
2019-03-12T00:38:14.637Z,7.23
2019-03-12T00:40:43.242Z,6.97
2019-03-12T00:43:12.519Z,6.83
2019-03-12T00:45:41.420Z,3.83
2019-03-12T00:48:10.026Z,5.07
2019-03-12T00:50:38.999Z,7.63
2019-03-12T00:53:07.699Z,3.67
2019-03-12T00:55:36.371Z,3.90
2019-03-12T00:58:05.653Z,5.23
2019-03-12T01:00:34.675Z,7.47
2019-03-12T01:03:03.302Z,6.20
2019-03-12T01:05:32.257Z,7.77
2019-03-12T01:08:00.948Z,4.03
2019-03-12T01:10:29.819Z,6.03
2019-03-12T01:12:58.706Z,8.87
2019-03-12T01:15:27.600Z,3.40
2019-03-12T01:17:56.200Z,8.33
2019-03-12T01:20:24.794Z,4.60
2019-03-12T01:22:54.068Z,4.77
2019-03-12T01:25:22.972Z,5.17
2019-03-12T01:27:51.953Z,3.33
2019-03-12T01:30:20.576Z,3.70
2019-03-12T01:32:49.532Z,5.87
2019-03-12T01:35:18.144Z,2.20
2019-03-12T01:37:47.025Z,2.10
2019-03-12T01:40:16.419Z,3.07
2019-03-12T01:42:45.012Z,3.37
2019-03-12T01:45:14.600Z,5.33
2019-03-12T01:47:43.275Z,4.40
2019-03-12T01:50:12.017Z,3.53
2019-03-12T01:52:40.985Z,3.23
2019-03-12T01:55:10.679Z,3.27
2019-03-12T01:57:39.415Z,1.90
2019-03-12T02:00:09.991Z,3.23
2019-03-12T02:02:38.644Z,3.63
2019-03-12T02:05:07.414Z,3.27
2019-03-12T02:07:36.570Z,3.37
2019-03-12T02:10:05.803Z,8.00
2019-03-12T02:12:34.859Z,4.87
2019-03-12T02:15:03.587Z,5.50
2019-03-12T02:17:32.447Z,7.13
2019-03-12T02:20:01.366Z,4.93
2019-03-12T02:22:30.632Z,7.00
2019-03-12T02:24:59.228Z,6.47
2019-03-12T02:27:28.290Z,5.07
2019-03-12T02:29:56.941Z,3.97
2019-03-12T02:32:26.200Z,5.30
2019-03-12T02:34:55.092Z,7.13
2019-03-12T02:37:23.980Z,6.53
2019-03-12T02:39:52.867Z,5.47
2019-03-12T02:42:22.072Z,4.77
2019-03-12T02:44:51.068Z,5.73
2019-03-12T02:47:19.666Z,11.77
2019-03-12T02:49:48.616Z,7.03
2019-03-12T02:52:17.639Z,6.10
2019-03-12T02:54:46.547Z,5.33
2019-03-12T02:57:15.523Z,7.20
2019-03-12T02:59:44.491Z,8.43
2019-03-12T03:02:13.345Z,5.07
2019-03-12T03:04:41.929Z,7.73
2019-03-12T03:07:18.904Z,8.73
2019-03-12T03:09:47.915Z,5.67
2019-03-12T03:12:16.860Z,7.40
2019-03-12T03:14:45.743Z,6.80
2019-03-12T03:17:16.121Z,7.47
2019-03-12T03:19:45.069Z,7.70
2019-03-12T03:22:14.235Z,7.60
2019-03-12T03:24:43.462Z,9.30
2019-03-12T03:27:12.080Z,9.97
2019-03-12T03:29:40.655Z,8.87
2019-03-12T03:32:09.840Z,11.33
2019-03-12T03:34:38.443Z,7.70
2019-03-12T03:37:07.052Z,8.97
2019-03-12T03:39:35.998Z,8.73
2019-03-12T03:42:04.688Z,10.17
2019-03-12T03:44:33.290Z,12.37
2019-03-12T03:47:02.253Z,12.07
2019-03-12T03:49:30.861Z,11.70
2019-03-12T03:51:59.483Z,10.33
2019-03-12T03:54:28.418Z,13.33
2019-03-12T03:56:57.322Z,14.30
2019-03-12T03:59:25.960Z,10.23
2019-03-12T04:01:54.613Z,11.10
2019-03-12T04:04:23.575Z,9.70
2019-03-12T04:06:52.467Z,14.20
2019-03-12T04:09:21.462Z,13.43
2019-03-12T04:11:50.355Z,11.47
2019-03-12T04:14:19.678Z,13.20
2019-03-12T04:16:48.299Z,13.13
2019-03-12T04:19:16.959Z,10.30
2019-03-12T04:21:46.739Z,14.40
2019-03-12T04:24:15.460Z,14.30
2019-03-12T04:26:44.114Z,15.43
2019-03-12T04:29:13.109Z,14.30
2019-03-12T04:31:41.742Z,11.70
2019-03-12T04:34:20.087Z,11.13
2019-03-12T04:36:50.199Z,14.65
2019-03-12T04:39:19.112Z,14.93
2019-03-12T04:41:48.010Z,10.43
2019-03-12T04:44:16.610Z,11.80
2019-03-12T04:46:45.328Z,13.13
2019-03-12T04:49:14.251Z,11.48
2019-03-12T04:51:43.163Z,15.57
2019-03-12T04:54:12.591Z,12.30
2019-03-12T04:56:41.572Z,17.20
2019-03-12T04:59:10.591Z,10.47
2019-03-12T05:01:39.548Z,15.30
2019-03-12T05:04:08.156Z,15.60
2019-03-12T05:06:36.900Z,15.00
2019-03-12T05:09:08.592Z,18.90
2019-03-12T05:11:37.748Z,13.40
2019-03-12T05:14:34.522Z,16.80
2019-03-12T05:17:11.699Z,19.75
2019-03-12T05:19:42.599Z,21.57
2019-03-12T05:22:11.255Z,12.47
2019-03-12T05:24:39.878Z,12.47
2019-03-12T05:27:08.793Z,14.33
2019-03-12T05:29:38.002Z,15.05
2019-03-12T05:32:06.995Z,12.17
2019-03-12T05:34:36.024Z,20.10
2019-03-12T05:37:05.292Z,15.40
2019-03-12T05:39:33.896Z,16.77
2019-03-12T05:42:03.271Z,18.48
2019-03-12T05:44:32.172Z,15.95
2019-03-12T05:47:00.916Z,16.37
2019-03-12T05:49:30.162Z,19.90
2019-03-12T05:51:59.150Z,14.85
2019-03-12T05:54:28.143Z,20.73
2019-03-12T05:56:57.432Z,20.80
2019-03-12T05:59:26.335Z,19.77
2019-03-12T06:01:55.767Z,24.57
2019-03-12T06:04:24.732Z,26.12
2019-03-12T06:06:53.733Z,21.57
2019-03-12T06:09:30.218Z,21.47
2019-03-12T06:11:52.799Z,18.55
2019-03-12T06:14:21.477Z,17.85
2019-03-12T06:16:50.100Z,16.00
2019-03-12T06:19:19.002Z,21.00
2019-03-12T06:21:48.304Z,24.57
2019-03-12T06:24:17.298Z,55.35
2019-03-12T06:26:45.956Z,64.55
2019-03-12T06:29:14.570Z,49.60
2019-03-12T06:32:05.580Z,62.37
2019-03-12T06:34:57.266Z,18.85
2019-03-12T06:37:38.431Z,42.80
2019-03-12T06:40:31.641Z,28.45
2019-03-12T06:43:22.362Z,42.55
2019-03-12T06:46:13.197Z,34.73
2019-03-12T06:49:04.267Z,34.58
2019-03-12T06:51:53.351Z,29.67
2019-03-12T06:54:34.673Z,30.00
2019-03-12T06:57:20.197Z,32.63
2019-03-12T07:00:00.399Z,36.30
2019-03-12T07:02:37.899Z,34.00
2019-03-12T07:05:24.243Z,33.77
2019-03-12T07:08:15.044Z,32.77
2019-03-12T07:10:52.337Z,38.77
2019-03-12T07:13:33.311Z,40.50
2019-03-12T07:16:20.636Z,35.97
2019-03-12T07:19:08.888Z,41.47
2019-03-12T07:22:06.139Z,39.10
2019-03-12T07:25:03.404Z,41.00
2019-03-12T07:27:37.474Z,38.73
2019-03-12T07:30:30.058Z,27.17
2019-03-12T07:33:17.707Z,39.73
2019-03-12T07:36:05.736Z,42.83
2019-03-12T07:38:40.108Z,42.13
2019-03-12T07:41:25.047Z,51.17
2019-03-12T07:44:10.590Z,47.53
2019-03-12T07:46:48.959Z,48.57
2019-03-12T07:49:35.921Z,46.27
2019-03-12T07:52:20.481Z,41.33
2019-03-12T07:55:17.105Z,38.50
2019-03-12T07:58:14.132Z,37.60
2019-03-12T08:00:57.058Z,37.43
2019-03-12T08:03:31.208Z,31.77
2019-03-12T08:06:34.480Z,38.83
2019-03-12T08:09:18.917Z,39.63
2019-03-12T08:11:53.079Z,33.53
2019-03-12T08:14:34.770Z,35.60
2019-03-12T08:17:09.057Z,32.43
2019-03-12T08:19:59.939Z,32.23
2019-03-12T08:22:50.803Z,35.70
2019-03-12T08:25:44.681Z,29.27
2019-03-12T08:28:18.592Z,31.77
2019-03-12T08:30:56.432Z,32.53
2019-03-12T08:33:35.512Z,31.20
2019-03-12T08:36:17.055Z,32.80
2019-03-12T08:38:55.011Z,36.23
2019-03-12T08:41:55.053Z,34.97
2019-03-12T08:44:30.641Z,36.00
2019-03-12T08:47:27.445Z,35.17
2019-03-12T08:50:02.829Z,38.30
2019-03-12T08:52:42.423Z,37.47
2019-03-12T08:55:33.832Z,47.47
2019-03-12T08:58:16.454Z,41.07
2019-03-12T09:00:58.649Z,34.03
2019-03-12T09:03:44.695Z,44.20
2019-03-12T09:06:32.645Z,41.93
2019-03-12T09:09:10.206Z,39.27
2019-03-12T09:11:46.950Z,37.83
2019-03-12T09:14:24.651Z,39.07
2019-03-12T09:17:04.392Z,42.93
2019-03-12T09:19:53.355Z,39.87
2019-03-12T09:22:27.857Z,36.17
2019-03-12T09:25:33.614Z,38.43
2019-03-12T09:28:17.171Z,39.33
2019-03-12T09:31:06.135Z,41.27
2019-03-12T09:33:54.477Z,42.23
2019-03-12T09:36:34.784Z,40.33
2019-03-12T09:39:21.113Z,30.97
2019-03-12T09:41:59.450Z,35.60
2019-03-12T09:44:53.229Z,27.60
2019-03-12T09:47:31.947Z,25.33
2019-03-12T09:50:24.490Z,26.13
2019-03-12T09:53:14.932Z,29.00
2019-03-12T09:55:58.375Z,20.83
2019-03-12T09:58:49.270Z,18.30
2019-03-12T10:01:28.761Z,18.63
2019-03-12T10:04:06.285Z,12.67
2019-03-12T10:06:50.511Z,13.90
2019-03-12T10:09:26.266Z,15.83
2019-03-12T10:12:13.282Z,10.93
2019-03-12T10:15:07.498Z,9.00
2019-03-12T10:17:52.189Z,15.10
2019-03-12T10:20:38.970Z,13.07
2019-03-12T10:23:20.434Z,10.13
2019-03-12T10:26:02.061Z,12.00
2019-03-12T10:28:54.829Z,14.43
2019-03-12T10:31:33.826Z,10.17
2019-03-12T10:34:11.649Z,11.33
2019-03-12T10:37:10.954Z,11.33
2019-03-12T10:40:09.012Z,11.30
2019-03-12T10:42:58.661Z,6.47
2019-03-12T10:45:41.880Z,11.93
2019-03-12T10:48:10.867Z,10.43
2019-03-12T10:50:39.568Z,12.27
2019-03-12T10:53:08.552Z,7.17
2019-03-12T10:55:37.545Z,6.20
2019-03-12T10:58:06.218Z,12.23
2019-03-12T11:00:35.121Z,7.80
2019-03-12T11:03:03.873Z,14.07
2019-03-12T11:05:45.282Z,10.70
2019-03-12T11:08:06.559Z,8.87
2019-03-12T11:10:34.171Z,11.67
2019-03-12T11:13:03.100Z,9.90
2019-03-12T11:15:31.817Z,8.63
2019-03-12T11:18:01.358Z,8.80
2019-03-12T11:20:29.966Z,12.40
2019-03-12T11:22:58.615Z,15.33
2019-03-12T11:25:28.295Z,6.57
2019-03-12T11:27:57.435Z,9.47
2019-03-12T11:30:26.435Z,7.73
2019-03-12T11:32:55.071Z,9.60
2019-03-12T11:35:24.314Z,8.27
2019-03-12T11:37:53.236Z,12.83
2019-03-12T11:40:21.911Z,8.83
2019-03-12T11:42:50.519Z,8.57
2019-03-12T11:45:25.753Z,7.70
2019-03-12T11:47:50.951Z,7.23
2019-03-12T11:50:20.516Z,6.03
2019-03-12T11:52:55.864Z,10.07
2019-03-12T11:55:20.083Z,7.77
2019-03-12T11:57:49.375Z,8.27
2019-03-12T12:00:27.607Z,8.33
2019-03-12T12:03:00.264Z,11.17
2019-03-12T12:05:28.111Z,6.27
2019-03-12T12:07:56.739Z,8.07
2019-03-12T12:10:26.277Z,9.57
2019-03-12T12:12:55.179Z,7.53
2019-03-12T12:15:24.205Z,7.13
2019-03-12T12:17:53.182Z,12.77
2019-03-12T12:20:29.727Z,6.93
2019-03-12T12:22:52.138Z,9.30
2019-03-12T12:25:20.878Z,8.30
2019-03-12T12:27:49.907Z,7.43
2019-03-12T12:30:18.786Z,8.83
2019-03-12T12:32:47.758Z,11.17
2019-03-12T12:35:16.755Z,8.83
2019-03-12T12:37:46.053Z,6.87
2019-03-12T12:40:15.428Z,14.53
2019-03-12T12:42:44.043Z,11.33
2019-03-12T12:45:15.248Z,4.97
2019-03-12T12:47:44.223Z,11.17
2019-03-12T12:50:13.172Z,9.87
2019-03-12T12:52:42.043Z,12.90
2019-03-12T12:55:12.294Z,10.53
2019-03-12T12:57:40.992Z,11.33
2019-03-12T13:00:13.949Z,16.70
2019-03-12T13:02:43.156Z,9.30
2019-03-12T13:05:12.051Z,4.97
2019-03-12T13:07:40.917Z,12.00
2019-03-12T13:10:11.878Z,9.20
2019-03-12T13:12:41.244Z,11.43
2019-03-12T13:15:10.797Z,7.17
2019-03-12T13:17:39.509Z,6.33
2019-03-12T13:20:08.486Z,8.07
2019-03-12T13:22:37.359Z,7.43
2019-03-12T13:25:06.662Z,9.93
2019-03-12T13:27:42.210Z,12.60
2019-03-12T13:30:06.388Z,7.63
2019-03-12T13:32:35.158Z,10.73
2019-03-12T13:35:04.061Z,7.57
2019-03-12T13:37:32.710Z,11.00
2019-03-12T13:40:01.747Z,10.77
2019-03-12T13:42:31.325Z,10.53
2019-03-12T13:45:01.159Z,6.53
2019-03-12T13:47:30.283Z,12.53
2019-03-12T13:49:59.876Z,12.43
2019-03-12T13:52:28.767Z,8.37
2019-03-12T13:54:58.178Z,10.83
2019-03-12T13:57:26.816Z,11.97
2019-03-12T13:59:55.447Z,7.63
2019-03-12T14:02:24.326Z,8.57
2019-03-12T14:04:53.324Z,9.70
2019-03-12T14:07:21.950Z,10.10
2019-03-12T14:09:50.920Z,10.70
2019-03-12T14:12:19.892Z,12.60
2019-03-12T14:14:49.206Z,10.87
2019-03-12T14:17:17.920Z,9.63
2019-03-12T14:19:46.899Z,8.97
2019-03-12T14:22:15.567Z,13.57
2019-03-12T14:24:44.867Z,7.77
2019-03-12T14:27:14.271Z,10.00
2019-03-12T14:29:43.163Z,8.43
2019-03-12T14:32:12.329Z,10.93
2019-03-12T14:34:41.337Z,8.93
2019-03-12T14:37:10.247Z,8.47
2019-03-12T14:39:39.220Z,11.60
2019-03-12T14:42:08.231Z,4.10
2019-03-12T14:44:37.377Z,7.40
2019-03-12T14:47:06.430Z,6.57
2019-03-12T14:49:35.294Z,8.97
2019-03-12T14:52:28.384Z,11.40
2019-03-12T14:54:56.978Z,5.97
2019-03-12T14:57:25.568Z,13.03
2019-03-12T14:59:54.638Z,6.40
2019-03-12T15:02:24.047Z,7.40
2019-03-12T15:04:52.770Z,8.07
2019-03-12T15:07:21.369Z,7.80
2019-03-12T15:09:50.408Z,7.97
2019-03-12T15:12:19.069Z,13.50
2019-03-12T15:14:47.978Z,8.03
2019-03-12T15:17:17.587Z,6.30
2019-03-12T15:19:46.584Z,5.87
2019-03-12T15:22:15.220Z,6.97
2019-03-12T15:24:44.471Z,8.13
2019-03-12T15:27:13.382Z,10.93
2019-03-12T15:29:42.008Z,10.73
2019-03-12T15:32:10.927Z,8.40
2019-03-12T15:34:39.935Z,5.27
2019-03-12T15:37:08.886Z,3.33
2019-03-12T15:39:37.818Z,7.83
2019-03-12T15:42:06.433Z,5.13
2019-03-12T15:44:36.010Z,3.93
2019-03-12T15:47:08.583Z,4.53
2019-03-12T15:49:37.811Z,5.17
2019-03-12T15:52:05.840Z,7.23
2019-03-12T15:54:34.764Z,4.57
2019-03-12T15:57:03.801Z,4.67
2019-03-12T15:59:32.738Z,1.70
2019-03-12T16:02:01.835Z,3.17
2019-03-12T16:04:30.718Z,3.77
2019-03-12T16:07:01.710Z,3.80
2019-03-12T16:09:30.568Z,2.90
2019-03-12T16:11:59.551Z,5.83
2019-03-12T16:14:28.169Z,2.70
2019-03-12T16:16:57.131Z,1.90
2019-03-12T16:19:26.184Z,3.43
2019-03-12T16:21:55.220Z,1.57
2019-03-12T16:24:24.173Z,1.50
2019-03-12T16:26:53.106Z,5.37
2019-03-12T16:29:22.296Z,2.23
2019-03-12T16:31:51.061Z,1.87
2019-03-12T16:34:20.295Z,2.00
2019-03-12T16:36:49.279Z,2.97
2019-03-12T16:39:17.914Z,1.40
2019-03-12T16:41:46.868Z,2.43
2019-03-12T16:44:15.515Z,5.00
2019-03-12T16:46:44.183Z,1.50
2019-03-12T16:49:12.823Z,5.77
2019-03-12T16:51:41.510Z,3.27
2019-03-12T16:54:10.509Z,4.43
2019-03-12T16:56:45.085Z,1.60
2019-03-12T16:59:10.432Z,2.53
2019-03-12T17:01:39.438Z,4.93
2019-03-12T17:04:08.110Z,2.60
2019-03-12T17:06:37.442Z,3.40
2019-03-12T17:09:06.923Z,4.93
2019-03-12T17:11:36.524Z,3.97
2019-03-12T17:14:05.518Z,3.97
2019-03-12T17:16:34.526Z,2.83
2019-03-12T17:19:03.402Z,5.83
2019-03-12T17:21:32.890Z,5.20
2019-03-12T17:24:02.315Z,7.43
2019-03-12T17:26:31.421Z,4.47
2019-03-12T17:29:00.023Z,6.53
2019-03-12T17:31:28.904Z,4.07
2019-03-12T17:33:57.881Z,5.37
2019-03-12T17:36:28.466Z,7.63
2019-03-12T17:38:57.710Z,6.57
2019-03-12T17:41:26.370Z,8.00
2019-03-12T17:43:57.882Z,4.80
2019-03-12T17:46:26.978Z,6.40
2019-03-12T17:48:55.832Z,6.33
2019-03-12T17:51:24.864Z,3.20
2019-03-12T17:53:54.026Z,5.97
2019-03-12T17:56:22.919Z,8.00
2019-03-12T17:58:51.812Z,6.80
2019-03-12T18:01:20.702Z,6.77
2019-03-12T18:03:50.010Z,4.00
2019-03-12T18:06:18.649Z,12.63
2019-03-12T18:08:47.679Z,7.27
2019-03-12T18:11:16.367Z,6.27
2019-03-12T18:13:45.144Z,4.83
2019-03-12T18:16:14.152Z,5.43
2019-03-12T18:18:43.047Z,5.73
2019-03-12T18:21:11.656Z,5.63
2019-03-12T18:23:43.437Z,4.77
2019-03-12T18:26:13.100Z,5.07
2019-03-12T18:28:41.987Z,7.93
2019-03-12T18:31:10.724Z,9.70
2019-03-12T18:33:39.375Z,3.70
2019-03-12T18:36:08.352Z,7.07
2019-03-12T18:38:37.022Z,4.83
2019-03-12T18:41:06.094Z,3.00
2019-03-12T18:43:35.020Z,10.10
2019-03-12T18:46:04.007Z,4.97
2019-03-12T18:48:32.620Z,2.40
2019-03-12T18:51:01.243Z,4.67
2019-03-12T18:53:30.192Z,8.70
2019-03-12T18:56:07.267Z,4.37
2019-03-12T18:58:35.978Z,5.93
2019-03-12T19:01:12.182Z,5.47
2019-03-12T19:03:41.209Z,5.70
2019-03-12T19:06:10.390Z,6.93
2019-03-12T19:08:39.310Z,7.27
2019-03-12T19:11:08.032Z,5.40
2019-03-12T19:13:38.095Z,3.77
2019-03-12T19:16:06.711Z,6.57
2019-03-12T19:18:35.686Z,9.07
2019-03-12T19:21:04.465Z,7.57
2019-03-12T19:23:33.176Z,4.27
2019-03-12T19:26:02.468Z,2.53
2019-03-12T19:28:31.098Z,6.60
2019-03-12T19:31:17.499Z,4.53
2019-03-12T19:33:47.264Z,4.17
2019-03-12T19:36:16.256Z,6.30
2019-03-12T19:38:45.554Z,3.67
2019-03-12T19:41:14.193Z,6.30
2019-03-12T19:43:42.788Z,4.33
2019-03-12T19:46:11.722Z,6.57
2019-03-12T19:48:40.318Z,6.10
2019-03-12T19:51:09.705Z,5.90
2019-03-12T19:53:38.720Z,3.50
2019-03-12T19:56:10.079Z,6.80
2019-03-12T19:58:40.003Z,4.57
2019-03-12T20:01:09.065Z,5.33
2019-03-12T20:03:37.963Z,6.20
2019-03-12T20:06:06.865Z,3.77
2019-03-12T20:08:35.585Z,3.77
2019-03-12T20:11:43.647Z,8.23
2019-03-12T20:14:49.637Z,7.83
2019-03-12T20:17:57.512Z,5.80
2019-03-12T20:21:09.809Z,6.47
2019-03-12T20:24:19.042Z,6.33
2019-03-12T20:27:26.695Z,6.33
2019-03-12T20:30:21.457Z,7.53
2019-03-12T20:33:37.481Z,4.90
2019-03-12T20:36:42.585Z,7.77
2019-03-12T20:39:46.357Z,6.23
2019-03-12T20:43:08.029Z,6.63
2019-03-12T20:46:33.341Z,4.10
2019-03-12T20:49:34.651Z,7.10
2019-03-12T20:52:54.171Z,4.83
2019-03-12T20:55:50.888Z,4.70
2019-03-12T20:58:55.956Z,7.13
2019-03-12T21:02:24.749Z,5.20
2019-03-12T21:05:27.139Z,6.83
2019-03-12T21:08:30.050Z,4.50
2019-03-12T21:11:35.276Z,4.57
2019-03-12T21:14:20.786Z,4.33
2019-03-12T21:17:39.520Z,5.27
2019-03-12T21:20:34.609Z,4.03
2019-03-12T21:23:35.624Z,3.33
2019-03-12T21:26:43.875Z,3.37
2019-03-12T21:29:49.976Z,4.43
2019-03-12T21:32:19.211Z,4.40
2019-03-12T21:34:48.136Z,5.13
2019-03-12T21:37:16.909Z,4.47
2019-03-12T21:39:55.412Z,4.10
2019-03-12T21:42:16.533Z,3.40
2019-03-12T21:44:45.498Z,8.13
2019-03-12T21:47:14.165Z,2.23
2019-03-12T21:49:43.106Z,4.20
2019-03-12T21:52:11.803Z,1.87
2019-03-12T21:54:40.763Z,5.33
2019-03-12T21:57:09.985Z,7.33
2019-03-12T21:59:38.879Z,5.70
2019-03-12T22:02:07.514Z,5.00
2019-03-12T22:04:38.202Z,2.27
2019-03-12T22:07:07.699Z,3.77
2019-03-12T22:09:36.345Z,5.77
2019-03-12T22:12:05.048Z,3.47
2019-03-12T22:14:33.969Z,4.73
2019-03-12T22:17:04.137Z,3.67
2019-03-12T22:19:32.741Z,3.67
2019-03-12T22:22:06.610Z,3.77
2019-03-12T22:24:35.276Z,4.67
2019-03-12T22:27:03.866Z,4.73
2019-03-12T22:29:32.590Z,5.83
2019-03-12T22:32:01.556Z,3.80
2019-03-12T22:34:30.549Z,3.10
2019-03-12T22:36:59.191Z,3.90
2019-03-12T22:39:28.408Z,4.23
2019-03-12T22:41:57.297Z,2.83
2019-03-12T22:44:26.496Z,2.73
2019-03-12T22:46:55.137Z,2.73
2019-03-12T22:49:23.776Z,8.17
2019-03-12T22:51:52.398Z,4.73
2019-03-12T22:54:20.984Z,2.00
2019-03-12T22:56:49.616Z,1.73
2019-03-12T22:59:18.234Z,2.83
2019-03-12T23:01:47.201Z,4.87
2019-03-12T23:04:15.818Z,4.87
2019-03-12T23:06:44.425Z,1.73
2019-03-12T23:09:13.157Z,1.90
2019-03-12T23:11:42.550Z,2.27
2019-03-12T23:14:11.554Z,1.47
2019-03-12T23:16:40.655Z,2.37
2019-03-12T23:19:09.290Z,2.73
2019-03-12T23:21:37.973Z,2.60
2019-03-12T23:24:06.674Z,1.27
2019-03-12T23:26:35.599Z,2.93
2019-03-12T23:29:04.907Z,2.83
2019-03-12T23:31:34.010Z,4.67
2019-03-12T23:34:02.677Z,4.47
2019-03-12T23:36:31.546Z,3.27
2019-03-12T23:39:00.271Z,2.73
2019-03-12T23:41:29.259Z,5.83
2019-03-12T23:43:58.250Z,2.50
2019-03-12T23:46:27.679Z,2.13
2019-03-12T23:48:56.619Z,5.17
2019-03-12T23:51:25.659Z,4.03
2019-03-12T23:53:54.314Z,3.67
2019-03-12T23:56:22.929Z,6.33
2019-03-12T23:58:51.932Z,2.37
